Hlavní strana
METAR-TAF:

METAR-TAF

Letiště :

Kirkenes, Norsko

zeměpisná šířka: 69-44N, zeměpisná délka: 029-54E, výška: 9 m

Aktuální stav počasí

Zpráva byla vytvořena před 25 minutami, v 08:20 UTC
Jižní vítr 20 kt
Teplota 2°C
Vlhkost vzduchu 93%
Tlak 1007 hPa
Viditelnost 10 km a více
Skoro jasno ve výšce 800 ft
Polojasno ve výšce 1900 ft
Oblačno až skoro zataženo ve výšce 2400 ft
slabý déšť, mrholení

METAR: ENKR 150820Z 19020KT 9999 -RADZ FEW008 SCT019 BKN024 02/01 Q1007 RMK WIND 731FT 20032G45KT

Čas: 09:45 (08:45 UTC)

Předpověď počasí

Zpráva byla vytvořena před 45 minutami, v 08:00 UTC
Předpověď platná od 15 v 09 UTC do 15 v 18 UTC
Jižní vítr 15 kt
Viditelnost 10 km a více
Oblačno až skoro zataženo ve výšce 700 ft
Dočasný
od 15 v 09 UTC do 15 v 15 UTC
Viditelnost: 4000 m
Polojasno ve výšce 700 ft
Oblačno až skoro zataženo ve výšce 2000 ft
slabý déšť, sníh

TAF: ENKR 150800Z 1509/1518 19015KT 9999 BKN007 TEMPO 1509/1515 4000 -RASN SCT007 BKN020

Stav a předpovědi počasí z více než 4 000 letišť (zprávy METAR a TAF).

Červené a žluté tečky na mapě představují dostupné meteorologické stanice.

Když kurzor umístíte na tečku, zobrazí se název stanice.

Pak kliknutím zobrazíte stav a předpověď počasí.

Chcete-li změnit mapu, kliknutím na zelené tlačítko se znaménkem +mapu přiblížíte, kliknutím na zelené tlačítko se znaménkem – mapu oddálíte a kliknutím na zelené šipky přejdete na sousední mapy.


METAR-TAF: